createdAt,value
2017-08-11T00:00:20.921Z,99.90
2017-08-11T00:02:50.180Z,99.90
2017-08-11T00:05:19.014Z,99.90
2017-08-11T00:07:47.516Z,99.90
2017-08-11T00:10:15.976Z,99.90
2017-08-11T00:12:45.183Z,99.90
2017-08-11T00:15:13.895Z,99.90
2017-08-11T00:17:42.740Z,99.90
2017-08-11T00:20:11.199Z,99.90
2017-08-11T00:22:43.146Z,99.90
2017-08-11T00:25:15.461Z,99.90
2017-08-11T00:27:48.072Z,99.90
2017-08-11T00:30:20.012Z,99.90
2017-08-11T00:32:53.455Z,99.90
2017-08-11T00:35:25.431Z,99.90
2017-08-11T00:37:58.863Z,99.90
2017-08-11T00:40:31.035Z,99.90
2017-08-11T00:45:01.223Z,99.90
2017-08-11T00:47:29.709Z,99.90
2017-08-11T00:49:58.149Z,99.90
2017-08-11T00:52:26.583Z,99.90
2017-08-11T00:54:55.087Z,99.90
2017-08-11T00:57:23.510Z,99.90
2017-08-11T00:59:51.948Z,99.90
2017-08-11T01:02:20.421Z,99.90
2017-08-11T01:04:49.626Z,99.90
2017-08-11T01:07:18.491Z,99.90
2017-08-11T01:09:47.319Z,99.90
2017-08-11T01:12:15.765Z,99.90
2017-08-11T01:14:44.641Z,99.90
2017-08-11T01:17:13.123Z,99.90
2017-08-11T01:19:41.560Z,99.90
2017-08-11T01:22:10.824Z,99.90
2017-08-11T01:24:40.396Z,99.90
2017-08-11T01:27:08.834Z,99.90
2017-08-11T01:29:37.290Z,99.90
2017-08-11T01:32:05.737Z,99.90
2017-08-11T01:34:35.099Z,99.90
2017-08-11T01:37:03.623Z,99.90
2017-08-11T01:39:32.466Z,99.90
2017-08-11T01:42:02.056Z,99.90
2017-08-11T01:44:30.485Z,99.90
2017-08-11T01:46:58.938Z,99.90
2017-08-11T01:49:27.403Z,99.90
2017-08-11T01:51:55.828Z,99.90
2017-08-11T01:54:25.075Z,99.90
2017-08-11T01:56:53.530Z,99.90
2017-08-11T01:59:21.965Z,99.90
2017-08-11T02:01:50.442Z,99.90
2017-08-11T02:04:18.871Z,99.90
2017-08-11T02:06:46.678Z,99.90
2017-08-11T02:09:15.116Z,99.90
2017-08-11T02:11:43.640Z,99.90
2017-08-11T02:14:11.739Z,99.90
2017-08-11T02:16:40.187Z,99.90
2017-08-11T02:19:08.674Z,99.90
2017-08-11T02:21:37.120Z,99.90
2017-08-11T02:24:05.567Z,99.80
2017-08-11T02:26:34.029Z,99.70
2017-08-11T02:29:02.466Z,99.90
2017-08-11T02:31:30.963Z,99.90
2017-08-11T02:34:00.159Z,99.90
2017-08-11T02:36:29.028Z,99.90
2017-08-11T02:38:57.501Z,99.90
2017-08-11T02:41:26.792Z,99.90
2017-08-11T02:43:56.439Z,99.90
2017-08-11T02:46:24.923Z,99.60
2017-08-11T02:48:53.388Z,99.70
2017-08-11T02:51:21.806Z,99.50
2017-08-11T02:53:50.275Z,99.80
2017-08-11T02:56:19.503Z,99.90
2017-08-11T02:58:47.985Z,99.50
2017-08-11T03:01:16.408Z,99.70
2017-08-11T03:03:44.847Z,99.90
2017-08-11T03:06:13.838Z,99.90
2017-08-11T03:08:42.687Z,99.90
2017-08-11T03:11:11.159Z,99.90
2017-08-11T03:13:40.405Z,99.90
2017-08-11T03:16:08.864Z,98.70
2017-08-11T03:18:37.332Z,98.50
2017-08-11T03:21:05.804Z,98.60
2017-08-11T03:23:34.283Z,99.00
2017-08-11T03:26:03.468Z,99.90
2017-08-11T03:28:31.942Z,99.50
2017-08-11T03:31:00.368Z,99.70
2017-08-11T03:33:28.799Z,99.50
2017-08-11T03:35:58.541Z,99.70
2017-08-11T03:38:27.370Z,99.90
2017-08-11T03:40:55.827Z,99.60
2017-08-11T03:43:24.316Z,98.80
2017-08-11T03:45:52.794Z,99.30
2017-08-11T03:48:21.637Z,98.80
2017-08-11T03:50:50.055Z,98.10
2017-08-11T03:53:18.921Z,98.30
2017-08-11T03:55:47.380Z,98.60
2017-08-11T03:58:15.860Z,98.30
2017-08-11T04:00:44.294Z,98.60
2017-08-11T04:03:13.486Z,99.00
2017-08-11T04:05:41.953Z,99.50
2017-08-11T04:08:11.142Z,99.90
2017-08-11T04:10:40.401Z,99.90
2017-08-11T04:13:08.831Z,99.90
2017-08-11T04:15:38.038Z,99.90
2017-08-11T04:18:06.544Z,99.80
2017-08-11T04:20:35.043Z,99.70
2017-08-11T04:23:03.460Z,98.90
2017-08-11T04:25:31.960Z,98.60
2017-08-11T04:28:00.399Z,98.80
2017-08-11T04:30:28.863Z,99.20
2017-08-11T04:32:58.069Z,98.80
2017-08-11T04:35:26.552Z,99.00
2017-08-11T04:37:54.972Z,98.80
2017-08-11T04:40:23.080Z,98.90
2017-08-11T04:42:51.554Z,98.30
2017-08-11T04:45:19.991Z,99.30
2017-08-11T04:47:49.241Z,99.60
2017-08-11T04:50:17.676Z,99.00
2017-08-11T04:52:46.917Z,99.50
2017-08-11T04:55:15.398Z,98.60
2017-08-11T04:57:43.824Z,99.20
2017-08-11T05:00:13.055Z,99.20
2017-08-11T05:02:43.016Z,98.90
2017-08-11T05:05:11.443Z,98.90
2017-08-11T05:07:39.897Z,97.60
2017-08-11T05:10:08.334Z,97.50
2017-08-11T05:12:37.587Z,97.40
2017-08-11T05:15:06.027Z,96.90
2017-08-11T05:17:35.256Z,97.90
2017-08-11T05:20:03.727Z,98.70
2017-08-11T05:22:32.158Z,97.80
2017-08-11T05:25:00.623Z,97.90
2017-08-11T05:27:29.055Z,98.60
2017-08-11T05:29:57.533Z,98.10
2017-08-11T05:32:25.959Z,98.20
2017-08-11T05:34:54.429Z,97.60
2017-08-11T05:37:22.874Z,97.70
2017-08-11T05:39:51.386Z,97.40
2017-08-11T05:42:19.853Z,96.20
2017-08-11T05:44:48.300Z,95.30
2017-08-11T05:47:16.767Z,93.40
2017-08-11T05:49:45.265Z,93.40
2017-08-11T05:52:13.777Z,93.70
2017-08-11T05:54:43.379Z,93.40
2017-08-11T05:57:11.851Z,93.30
2017-08-11T05:59:40.112Z,92.00
2017-08-11T06:02:08.543Z,91.60
2017-08-11T06:04:37.024Z,91.30
2017-08-11T06:07:05.536Z,90.70
2017-08-11T06:09:34.004Z,90.10
2017-08-11T06:12:02.430Z,88.40
2017-08-11T06:14:30.924Z,88.20
2017-08-11T06:16:59.388Z,88.00
2017-08-11T06:19:27.838Z,87.20
2017-08-11T06:21:56.726Z,84.90
2017-08-11T06:24:25.152Z,84.80
2017-08-11T06:26:53.590Z,84.80
2017-08-11T06:29:22.251Z,85.30
2017-08-11T06:31:50.683Z,85.60
2017-08-11T06:34:19.107Z,86.10
2017-08-11T06:36:48.371Z,85.20
2017-08-11T06:39:18.310Z,86.10
2017-08-11T06:41:46.731Z,85.50
2017-08-11T06:44:15.184Z,85.40
2017-08-11T06:46:44.819Z,85.60
2017-08-11T06:49:13.284Z,85.30
2017-08-11T06:51:42.042Z,83.70
2017-08-11T06:54:10.526Z,82.60
2017-08-11T06:56:38.959Z,82.80
2017-08-11T06:59:07.390Z,81.80
2017-08-11T07:01:35.858Z,80.30
2017-08-11T07:04:04.287Z,82.50
2017-08-11T07:06:32.766Z,84.00
2017-08-11T07:09:01.192Z,85.00
2017-08-11T07:11:29.322Z,83.10
2017-08-11T07:13:57.769Z,80.90
2017-08-11T07:16:26.300Z,82.30
2017-08-11T07:18:54.743Z,80.50
2017-08-11T07:21:23.179Z,81.70
2017-08-11T07:23:51.666Z,80.00
2017-08-11T07:26:20.090Z,78.80
2017-08-11T07:28:48.520Z,78.60
2017-08-11T07:31:16.978Z,76.10
2017-08-11T07:33:45.421Z,76.30
2017-08-11T07:36:13.848Z,74.00
2017-08-11T07:38:42.281Z,71.30
2017-08-11T07:41:11.521Z,73.60
2017-08-11T07:43:40.012Z,75.80
2017-08-11T07:46:08.444Z,75.40
2017-08-11T07:48:36.874Z,76.50
2017-08-11T07:51:05.354Z,78.10
2017-08-11T07:53:34.559Z,78.70
2017-08-11T07:56:03.837Z,78.90
2017-08-11T07:58:32.284Z,78.90
2017-08-11T08:01:02.230Z,80.30
2017-08-11T08:03:30.658Z,80.40
2017-08-11T08:05:59.100Z,80.30
2017-08-11T08:08:27.576Z,79.90
2017-08-11T08:10:56.007Z,77.90
2017-08-11T08:13:24.313Z,77.70
2017-08-11T08:15:52.788Z,77.20
2017-08-11T08:18:21.214Z,75.80
2017-08-11T08:20:49.700Z,74.90
2017-08-11T08:23:18.520Z,74.30
2017-08-11T08:25:47.353Z,73.50
2017-08-11T08:28:15.849Z,74.10
2017-08-11T08:30:44.287Z,70.00
2017-08-11T08:33:12.722Z,70.30
2017-08-11T08:35:41.210Z,70.20
2017-08-11T08:38:09.674Z,70.40
2017-08-11T08:40:38.646Z,70.30
2017-08-11T08:43:07.115Z,69.20
2017-08-11T08:45:35.952Z,69.70
2017-08-11T08:48:04.437Z,69.00
2017-08-11T08:50:32.876Z,69.20
2017-08-11T08:53:01.341Z,72.40
2017-08-11T08:55:30.250Z,73.70
2017-08-11T08:57:58.693Z,74.20
2017-08-11T09:00:27.919Z,74.20
2017-08-11T09:02:56.382Z,73.20
2017-08-11T09:05:25.963Z,75.20
2017-08-11T09:07:54.444Z,76.10
2017-08-11T09:10:23.260Z,77.70
2017-08-11T09:12:52.468Z,76.20
2017-08-11T09:15:21.726Z,75.00
2017-08-11T09:17:50.397Z,75.20
2017-08-11T09:20:18.829Z,73.40
2017-08-11T09:22:47.291Z,75.50
2017-08-11T09:25:27.923Z,75.70
2017-08-11T09:28:07.330Z,75.60
2017-08-11T09:30:46.934Z,75.50
2017-08-11T09:33:27.111Z,73.60
2017-08-11T09:36:06.608Z,73.70
2017-08-11T09:38:35.852Z,72.60
2017-08-11T09:41:04.299Z,72.60
2017-08-11T09:43:32.811Z,71.90
2017-08-11T09:46:02.017Z,72.60
2017-08-11T09:48:30.459Z,71.60
2017-08-11T09:50:59.714Z,69.60
2017-08-11T09:53:28.165Z,69.30
2017-08-11T09:55:58.135Z,72.80
2017-08-11T09:58:26.569Z,73.40
2017-08-11T10:00:55.396Z,73.10
2017-08-11T10:03:25.399Z,72.20
2017-08-11T10:05:53.868Z,70.60
2017-08-11T10:08:22.707Z,66.90
2017-08-11T10:10:52.734Z,56.60
2017-08-11T10:13:21.163Z,53.60
2017-08-11T10:15:49.596Z,53.70
2017-08-11T10:18:18.475Z,56.90
2017-08-11T10:20:47.296Z,51.20
2017-08-11T10:23:16.501Z,49.90
2017-08-11T10:25:45.741Z,52.40
2017-08-11T10:28:14.560Z,56.60
2017-08-11T10:33:12.588Z,60.00
2017-08-11T10:35:41.055Z,62.20
2017-08-11T10:38:09.496Z,63.10
2017-08-11T10:40:38.324Z,64.30
2017-08-11T10:43:06.806Z,64.30
2017-08-11T10:45:35.322Z,63.40
2017-08-11T10:48:04.194Z,65.40
2017-08-11T10:53:02.845Z,66.20
2017-08-11T10:55:31.694Z,64.20
2017-08-11T10:58:00.933Z,58.00
2017-08-11T11:00:31.306Z,57.90
2017-08-11T11:03:00.880Z,55.90
2017-08-11T11:05:29.713Z,56.60
2017-08-11T11:07:58.222Z,54.70
2017-08-11T11:10:26.667Z,58.30
2017-08-11T11:12:55.106Z,58.70
2017-08-11T11:15:23.577Z,63.30
2017-08-11T11:17:52.406Z,64.50
2017-08-11T11:20:20.842Z,64.50
2017-08-11T11:22:49.300Z,67.50
2017-08-11T11:25:18.523Z,68.10
2017-08-11T11:27:46.971Z,70.10
2017-08-11T11:30:15.460Z,71.60
2017-08-11T11:32:43.920Z,71.40
2017-08-11T11:35:12.799Z,71.20
2017-08-11T11:37:43.027Z,73.10
2017-08-11T11:40:12.227Z,73.20
2017-08-11T11:42:41.439Z,69.90
2017-08-11T11:45:09.921Z,67.70
2017-08-11T11:47:38.349Z,66.00
2017-08-11T11:50:07.579Z,65.40
2017-08-11T11:52:36.417Z,65.70
2017-08-11T11:55:05.340Z,67.20
2017-08-11T11:57:34.945Z,69.20
2017-08-11T12:00:03.373Z,70.90
2017-08-11T12:02:32.244Z,72.10
2017-08-11T12:05:00.729Z,74.30
2017-08-11T12:07:29.567Z,75.70
2017-08-11T12:09:58.454Z,73.20
2017-08-11T12:12:26.912Z,72.90
2017-08-11T12:14:56.134Z,72.70
2017-08-11T12:17:25.049Z,71.80
2017-08-11T12:22:23.332Z,74.40
2017-08-11T12:24:52.171Z,75.90
2017-08-11T12:27:21.753Z,76.80
2017-08-11T12:29:50.235Z,77.60
2017-08-11T12:32:18.674Z,77.20
2017-08-11T12:34:47.936Z,78.50
2017-08-11T12:39:46.966Z,78.40
2017-08-11T12:42:15.452Z,78.80
2017-08-11T12:44:44.317Z,78.60
2017-08-11T12:47:13.159Z,79.90
2017-08-11T12:49:42.457Z,80.70
2017-08-11T12:52:12.403Z,80.90
2017-08-11T12:54:41.063Z,82.10
2017-08-11T12:57:10.714Z,81.80
2017-08-11T12:59:38.966Z,82.90
2017-08-11T13:02:08.192Z,84.40
2017-08-11T13:04:36.634Z,88.70
2017-08-11T13:07:05.172Z,89.10
2017-08-11T13:09:35.213Z,90.30
2017-08-11T13:12:04.435Z,89.70
2017-08-11T13:14:32.880Z,90.30
2017-08-11T13:17:02.089Z,92.10
2017-08-11T13:19:30.544Z,91.50
2017-08-11T13:21:59.758Z,92.10
2017-08-11T13:24:29.308Z,93.30
2017-08-11T13:26:57.768Z,94.20
2017-08-11T13:29:26.963Z,92.90
2017-08-11T13:31:55.442Z,94.30
2017-08-11T13:34:23.867Z,95.30
2017-08-11T13:36:53.123Z,94.70
2017-08-11T13:39:21.957Z,96.00
2017-08-11T13:41:50.821Z,96.70
2017-08-11T13:44:19.301Z,98.50
2017-08-11T13:46:48.524Z,96.80
2017-08-11T13:49:17.404Z,95.70
2017-08-11T13:54:16.857Z,96.20
2017-08-11T13:56:45.292Z,96.00
2017-08-11T13:59:14.340Z,96.00
2017-08-11T14:01:43.608Z,96.70
2017-08-11T14:04:12.035Z,96.60
2017-08-11T14:06:40.463Z,96.80
2017-08-11T14:09:09.041Z,98.00
2017-08-11T14:11:37.462Z,98.10
2017-08-11T14:14:07.030Z,98.90
2017-08-11T14:16:35.518Z,98.70
2017-08-11T14:19:04.347Z,97.90
2017-08-11T14:21:33.546Z,98.50
2017-08-11T14:24:07.559Z,99.30
2017-08-11T14:26:35.987Z,99.20
2017-08-11T14:29:04.434Z,98.40
2017-08-11T14:31:33.684Z,97.40
2017-08-11T14:34:02.117Z,98.10
2017-08-11T14:36:30.564Z,97.50
2017-08-11T14:38:59.637Z,98.90
2017-08-11T14:41:28.550Z,99.20
2017-08-11T14:43:57.374Z,98.40
2017-08-11T14:48:55.328Z,98.00
2017-08-11T14:51:23.751Z,98.50
2017-08-11T14:53:52.988Z,98.30
2017-08-11T14:56:21.485Z,96.90
2017-08-11T14:58:50.320Z,97.60
2017-08-11T15:01:18.761Z,97.70
2017-08-11T15:03:47.361Z,99.10
2017-08-11T15:06:15.807Z,99.90
2017-08-11T15:08:44.239Z,99.20
2017-08-11T15:11:13.510Z,99.80
2017-08-11T15:13:41.965Z,99.90
2017-08-11T15:16:10.405Z,99.90
2017-08-11T15:18:39.289Z,99.90
2017-08-11T15:21:07.738Z,99.90
2017-08-11T15:23:36.192Z,99.90
2017-08-11T15:26:05.436Z,99.90
2017-08-11T15:28:34.268Z,99.90
2017-08-11T15:31:02.708Z,99.90
2017-08-11T15:33:31.185Z,99.90
2017-08-11T15:35:59.623Z,99.90
2017-08-11T15:40:57.981Z,99.90
2017-08-11T15:43:27.567Z,99.90
2017-08-11T15:45:56.777Z,99.90
2017-08-11T15:48:25.244Z,99.90
2017-08-11T15:50:53.684Z,99.20
2017-08-11T15:53:22.583Z,99.90
2017-08-11T15:55:51.016Z,99.90
2017-08-11T15:58:20.228Z,99.90
2017-08-11T16:00:48.730Z,99.90
2017-08-11T16:03:18.317Z,99.90
2017-08-11T16:05:46.780Z,99.90
2017-08-11T16:08:15.212Z,99.90
2017-08-11T16:10:44.427Z,99.90
2017-08-11T16:13:12.860Z,99.90
2017-08-11T16:15:42.088Z,99.90
2017-08-11T16:18:10.573Z,99.90
2017-08-11T16:20:38.835Z,99.90
2017-08-11T16:23:07.917Z,99.90
2017-08-11T16:25:36.396Z,99.90
2017-08-11T16:28:05.244Z,99.90
2017-08-11T16:30:33.735Z,99.90
2017-08-11T16:33:02.208Z,99.90
2017-08-11T16:35:30.643Z,99.90
2017-08-11T16:37:59.139Z,99.90
2017-08-11T16:40:27.974Z,99.90
2017-08-11T16:42:56.471Z,99.90
2017-08-11T16:45:24.942Z,99.90
2017-08-11T16:47:53.381Z,99.90
2017-08-11T16:50:22.231Z,99.90
2017-08-11T16:52:50.712Z,99.90
2017-08-11T16:55:19.182Z,99.90
2017-08-11T16:57:47.610Z,99.90
2017-08-11T17:00:16.085Z,99.90
2017-08-11T17:02:45.025Z,99.90
2017-08-11T17:05:13.951Z,99.90
2017-08-11T17:07:43.577Z,99.90
2017-08-11T17:10:12.407Z,99.90
2017-08-11T17:12:40.897Z,99.90
2017-08-11T17:15:09.550Z,99.90
2017-08-11T17:17:38.369Z,99.90
2017-08-11T17:20:07.242Z,99.90
2017-08-11T17:22:35.680Z,99.90
2017-08-11T17:25:04.345Z,99.90
2017-08-11T17:27:32.794Z,99.90
2017-08-11T17:30:01.284Z,99.90
2017-08-11T17:32:30.515Z,99.90
2017-08-11T17:34:59.395Z,99.90
2017-08-11T17:37:28.235Z,99.90
2017-08-11T17:39:57.825Z,99.90
2017-08-11T17:42:27.080Z,99.90
2017-08-11T17:44:55.524Z,99.90
2017-08-11T17:47:24.592Z,99.90
2017-08-11T17:49:53.028Z,99.90
2017-08-11T17:52:21.506Z,99.90
2017-08-11T17:54:51.050Z,99.90
2017-08-11T17:57:19.478Z,99.90
2017-08-11T17:59:47.997Z,99.90
2017-08-11T18:02:17.210Z,99.90
2017-08-11T18:04:46.409Z,99.90
2017-08-11T18:07:17.103Z,99.90
2017-08-11T18:09:45.586Z,99.90
2017-08-11T18:12:14.048Z,99.90
2017-08-11T18:14:42.671Z,99.90
2017-08-11T18:17:11.152Z,99.90
2017-08-11T18:19:40.395Z,99.90
2017-08-11T18:22:10.390Z,99.90
2017-08-11T18:24:38.824Z,99.90
2017-08-11T18:27:07.581Z,99.90
2017-08-11T18:29:36.819Z,99.90
2017-08-11T18:32:05.303Z,99.90
2017-08-11T18:34:37.152Z,99.90
2017-08-11T18:37:05.656Z,99.90
2017-08-11T18:39:34.088Z,99.90
2017-08-11T18:42:02.535Z,99.90
2017-08-11T18:44:31.787Z,99.90
2017-08-11T18:47:00.413Z,99.90
2017-08-11T18:49:28.847Z,99.90
2017-08-11T18:51:58.076Z,99.90
2017-08-11T18:54:26.531Z,99.90
2017-08-11T18:56:54.977Z,99.90
2017-08-11T18:59:23.495Z,99.90
2017-08-11T19:01:51.930Z,99.90
2017-08-11T19:04:20.402Z,99.90
2017-08-11T19:06:49.340Z,99.90
2017-08-11T19:09:18.352Z,99.90
2017-08-11T19:11:46.957Z,99.90
2017-08-11T19:14:15.412Z,99.90
2017-08-11T19:16:43.952Z,99.90
2017-08-11T19:19:13.334Z,99.90
2017-08-11T19:21:42.118Z,99.90
2017-08-11T19:24:10.863Z,99.90
2017-08-11T19:26:39.419Z,99.90
2017-08-11T19:29:08.151Z,99.90
2017-08-11T19:31:36.692Z,99.90
2017-08-11T19:34:05.406Z,99.90
2017-08-11T19:36:33.990Z,99.90
2017-08-11T19:39:02.656Z,99.90
2017-08-11T19:41:31.190Z,99.90
2017-08-11T19:43:59.928Z,99.90
2017-08-11T19:46:28.676Z,99.90
2017-08-11T19:48:57.304Z,99.90
2017-08-11T19:51:26.025Z,99.90
2017-08-11T19:53:54.942Z,99.90
2017-08-11T19:56:23.474Z,99.90
2017-08-11T19:58:52.200Z,99.90
2017-08-11T20:01:21.514Z,99.90
2017-08-11T20:03:50.437Z,99.90
2017-08-11T20:06:18.974Z,99.90
2017-08-11T20:08:47.526Z,99.90
2017-08-11T20:11:16.242Z,99.90
2017-08-11T20:13:44.978Z,99.90
2017-08-11T20:16:13.910Z,99.90
2017-08-11T20:18:43.669Z,99.90
2017-08-11T20:21:12.366Z,99.90
2017-08-11T20:23:41.004Z,99.90
2017-08-11T20:26:09.538Z,99.90
2017-08-11T20:28:38.109Z,99.90
2017-08-11T20:31:06.586Z,99.90
2017-08-11T20:33:35.069Z,99.90
2017-08-11T20:36:05.007Z,99.90
2017-08-11T20:38:33.487Z,99.90
2017-08-11T20:41:02.332Z,99.90
2017-08-11T20:43:31.541Z,99.90
2017-08-11T20:46:01.124Z,99.90
2017-08-11T20:48:29.998Z,99.90
2017-08-11T20:50:58.446Z,99.90
2017-08-11T20:53:27.668Z,99.90
2017-08-11T20:55:56.129Z,99.90
2017-08-11T20:58:24.643Z,99.90
2017-08-11T21:00:53.068Z,99.90
2017-08-11T21:03:22.261Z,99.90
2017-08-11T21:05:51.259Z,99.90
2017-08-11T21:08:20.097Z,99.90
2017-08-11T21:10:48.924Z,99.90
2017-08-11T21:13:17.476Z,99.90
2017-08-11T21:15:47.419Z,99.90
2017-08-11T21:18:15.853Z,99.90
2017-08-11T21:20:44.331Z,99.90
2017-08-11T21:23:12.755Z,99.90
2017-08-11T21:25:41.572Z,99.90
2017-08-11T21:28:10.060Z,99.90
2017-08-11T21:30:38.491Z,99.90
2017-08-11T21:33:06.919Z,99.90
2017-08-11T21:35:35.386Z,99.90
2017-08-11T21:38:03.817Z,99.90
2017-08-11T21:40:32.297Z,99.90
2017-08-11T21:43:00.732Z,99.90
2017-08-11T21:45:29.165Z,99.90
2017-08-11T21:47:58.832Z,99.90
2017-08-11T21:50:27.270Z,99.90
2017-08-11T21:52:56.107Z,99.90
2017-08-11T21:55:24.588Z,99.90
2017-08-11T21:57:53.017Z,99.90
2017-08-11T22:00:21.440Z,99.90
2017-08-11T22:02:49.948Z,99.90
2017-08-11T22:05:19.046Z,99.90
2017-08-11T22:07:48.254Z,99.90
2017-08-11T22:10:16.719Z,99.90
2017-08-11T22:12:45.200Z,99.90
2017-08-11T22:15:13.683Z,99.90
2017-08-11T22:17:42.164Z,99.90
2017-08-11T22:20:10.641Z,99.90
2017-08-11T22:22:39.117Z,99.90
2017-08-11T22:25:07.564Z,99.90
2017-08-11T22:27:36.767Z,99.90
2017-08-11T22:30:05.234Z,99.90
2017-08-11T22:32:33.698Z,99.90
2017-08-11T22:35:02.620Z,99.90
2017-08-11T22:37:31.069Z,99.90
2017-08-11T22:39:59.495Z,99.90
2017-08-11T22:42:27.997Z,99.90
2017-08-11T22:44:56.459Z,99.90
2017-08-11T22:47:25.286Z,99.90
2017-08-11T22:49:56.817Z,99.90
2017-08-11T22:52:25.633Z,99.90
2017-08-11T22:54:54.061Z,99.90
2017-08-11T22:57:22.532Z,99.90
2017-08-11T22:59:50.960Z,99.90
2017-08-11T23:02:19.431Z,99.90
2017-08-11T23:04:47.850Z,99.90
2017-08-11T23:07:16.355Z,99.90
2017-08-11T23:09:44.807Z,99.90
2017-08-11T23:12:13.233Z,99.90
2017-08-11T23:14:41.698Z,99.90
2017-08-11T23:17:10.532Z,99.90
2017-08-11T23:19:39.011Z,99.90
2017-08-11T23:22:07.455Z,99.90
2017-08-11T23:24:35.885Z,99.90
2017-08-11T23:27:05.518Z,99.90
2017-08-11T23:29:33.951Z,99.90
2017-08-11T23:32:02.384Z,99.90
2017-08-11T23:34:31.233Z,99.90
2017-08-11T23:36:59.664Z,99.90
2017-08-11T23:39:28.093Z,99.90
2017-08-11T23:41:56.431Z,99.90
2017-08-11T23:44:24.863Z,99.90
2017-08-11T23:46:53.288Z,99.90
2017-08-11T23:49:22.540Z,99.90
2017-08-11T23:51:50.968Z,99.90
2017-08-11T23:54:20.161Z,99.90
2017-08-11T23:56:48.629Z,99.90
2017-08-11T23:59:18.186Z,99.90
